createdAt,value
2019-01-05T00:02:42.581Z,99.90
2019-01-05T00:05:38.158Z,99.90
2019-01-05T00:08:33.549Z,99.90
2019-01-05T00:11:22.849Z,99.90
2019-01-05T00:14:09.772Z,99.90
2019-01-05T00:17:05.367Z,99.90
2019-01-05T00:20:01.835Z,97.40
2019-01-05T00:22:51.662Z,95.20
2019-01-05T00:25:59.074Z,98.40
2019-01-05T00:28:54.926Z,99.90
2019-01-05T00:31:43.031Z,98.00
2019-01-05T00:34:38.623Z,97.90
2019-01-05T00:37:34.781Z,99.90
2019-01-05T00:40:33.597Z,99.90
2019-01-05T00:43:26.366Z,99.90
2019-01-05T00:46:17.114Z,99.90
2019-01-05T00:49:06.839Z,97.30
2019-01-05T00:51:56.197Z,99.90
2019-01-05T00:55:01.050Z,99.90
2019-01-05T00:57:51.930Z,98.40
2019-01-05T01:00:41.284Z,97.10
2019-01-05T01:03:45.876Z,88.20
2019-01-05T01:06:35.210Z,74.50
2019-01-05T01:09:29.701Z,73.00
2019-01-05T01:12:19.111Z,61.50
2019-01-05T01:15:07.180Z,58.70
2019-01-05T01:18:03.832Z,47.20
2019-01-05T01:21:08.829Z,50.70
2019-01-05T01:23:58.726Z,50.60
2019-01-05T01:26:51.145Z,41.60
2019-01-05T01:29:49.443Z,43.80
2019-01-05T01:32:50.881Z,52.10
2019-01-05T01:35:46.082Z,54.10
2019-01-05T01:38:49.821Z,64.30
2019-01-05T01:41:49.087Z,65.10
2019-01-05T01:44:57.224Z,59.50
2019-01-05T01:47:48.891Z,58.10
2019-01-05T01:50:38.715Z,50.20
2019-01-05T01:53:28.761Z,50.30
2019-01-05T01:56:19.209Z,49.00
2019-01-05T01:59:08.053Z,48.60
2019-01-05T02:02:06.533Z,53.00
2019-01-05T02:04:54.946Z,52.70
2019-01-05T02:07:55.401Z,56.00
2019-01-05T02:10:57.432Z,60.80
2019-01-05T02:13:45.878Z,79.60
2019-01-05T02:16:38.005Z,90.60
2019-01-05T02:20:12.265Z,87.60
2019-01-05T02:23:46.171Z,89.40
2019-01-05T02:26:48.598Z,92.20
2019-01-05T02:30:27.428Z,93.80
2019-01-05T02:33:51.811Z,93.20
2019-01-05T02:37:37.301Z,86.90
2019-01-05T02:40:55.550Z,91.10
2019-01-05T02:44:18.205Z,74.60
2019-01-05T02:48:03.471Z,72.80
2019-01-05T02:51:17.040Z,73.10
2019-01-05T02:54:42.953Z,54.60
2019-01-05T02:57:59.709Z,44.30
2019-01-05T03:01:24.632Z,52.80
2019-01-05T03:04:42.736Z,60.80
2019-01-05T03:07:50.305Z,55.10
2019-01-05T03:11:44.962Z,56.30
2019-01-05T03:14:59.891Z,68.00
2019-01-05T03:18:26.913Z,82.20
2019-01-05T03:22:26.394Z,77.30
2019-01-05T03:26:04.585Z,64.80
2019-01-05T03:29:30.147Z,82.10
2019-01-05T03:33:06.895Z,75.10
2019-01-05T03:36:50.293Z,53.30
2019-01-05T03:40:13.645Z,70.30
2019-01-05T03:43:24.878Z,68.10
2019-01-05T03:46:54.198Z,58.00
2019-01-05T03:50:26.470Z,55.00
2019-01-05T03:54:21.192Z,64.90
2019-01-05T03:58:18.463Z,61.10
2019-01-05T04:01:40.114Z,61.40
2019-01-05T04:05:23.147Z,57.90
2019-01-05T04:09:03.990Z,57.20
2019-01-05T04:12:35.517Z,49.00
2019-01-05T04:16:07.813Z,61.00
2019-01-05T04:19:47.219Z,50.70
2019-01-05T04:23:03.362Z,43.30
2019-01-05T04:26:28.441Z,35.20
2019-01-05T04:29:51.774Z,28.30
2019-01-05T04:33:29.947Z,28.80
2019-01-05T04:36:52.001Z,26.60
2019-01-05T04:40:41.466Z,22.80
2019-01-05T04:44:31.510Z,37.60
2019-01-05T04:48:01.796Z,24.80
2019-01-05T04:51:50.890Z,41.20
2019-01-05T04:55:35.290Z,48.50
2019-01-05T04:59:13.197Z,69.90
2019-01-05T05:02:41.098Z,70.80
2019-01-05T05:06:24.784Z,75.60
2019-01-05T05:09:33.929Z,67.60
2019-01-05T05:12:56.398Z,88.60
2019-01-05T05:16:31.016Z,87.00
2019-01-05T05:20:07.235Z,87.30
2019-01-05T05:23:32.614Z,88.30
2019-01-05T05:27:01.905Z,92.60
2019-01-05T05:30:33.236Z,97.70
2019-01-05T05:34:00.777Z,99.90
2019-01-05T05:37:45.843Z,99.90
2019-01-05T05:41:37.352Z,99.90
2019-01-05T05:45:05.371Z,99.90
2019-01-05T05:48:30.500Z,99.90
2019-01-05T05:52:17.875Z,99.90
2019-01-05T05:56:02.883Z,99.90
2019-01-05T05:59:36.865Z,99.90
2019-01-05T06:03:01.895Z,97.40
2019-01-05T06:06:32.714Z,92.00
2019-01-05T06:10:01.825Z,95.40
2019-01-05T06:13:34.034Z,92.60
2019-01-05T06:16:54.485Z,98.10
2019-01-05T06:20:54.362Z,99.90
2019-01-05T06:24:38.398Z,99.90
2019-01-05T06:28:19.325Z,99.90
2019-01-05T06:31:46.836Z,97.70
2019-01-05T06:35:27.411Z,99.90
2019-01-05T06:39:06.365Z,99.90
2019-01-05T06:43:15.769Z,99.90
2019-01-05T06:46:39.730Z,99.90
2019-01-05T06:50:22.184Z,99.90
2019-01-05T06:53:53.838Z,99.90
2019-01-05T06:57:25.849Z,99.90
2019-01-05T07:01:19.823Z,99.90
2019-01-05T07:04:49.345Z,99.30
2019-01-05T07:08:17.673Z,99.90
2019-01-05T07:11:58.075Z,99.90
2019-01-05T07:15:21.929Z,99.90
2019-01-05T07:18:40.013Z,99.90
2019-01-05T07:22:33.777Z,99.90
2019-01-05T07:26:11.252Z,99.90
2019-01-05T07:29:39.198Z,99.90
2019-01-05T07:33:03.965Z,99.90
2019-01-05T07:36:31.949Z,99.90
2019-01-05T07:40:18.986Z,99.90
2019-01-05T07:43:50.886Z,99.90
2019-01-05T07:47:09.138Z,99.90
2019-01-05T07:51:06.427Z,99.90
2019-01-05T07:54:48.426Z,99.90
2019-01-05T07:58:40.529Z,99.90
2019-01-05T08:02:17.577Z,99.90
2019-01-05T08:05:34.580Z,99.90
2019-01-05T08:09:16.685Z,99.90
2019-01-05T08:12:59.944Z,99.90
2019-01-05T08:16:48.310Z,99.90
2019-01-05T08:20:39.369Z,99.90
2019-01-05T08:24:16.313Z,99.90
2019-01-05T08:27:43.794Z,99.90
2019-01-05T08:31:15.577Z,99.90
2019-01-05T08:34:43.987Z,99.90
2019-01-05T08:38:19.094Z,99.90
2019-01-05T08:41:53.694Z,99.90
2019-01-05T08:45:51.156Z,99.90
2019-01-05T08:49:20.897Z,99.90
2019-01-05T08:52:46.929Z,99.90
2019-01-05T08:56:23.118Z,99.90
2019-01-05T08:59:36.557Z,99.90
2019-01-05T09:03:17.695Z,99.90
2019-01-05T09:06:54.238Z,99.90
2019-01-05T09:10:37.682Z,99.90
2019-01-05T09:14:17.592Z,99.90
2019-01-05T09:17:48.486Z,99.90
2019-01-05T09:21:42.786Z,99.90
2019-01-05T09:25:17.809Z,99.90
2019-01-05T09:28:50.929Z,99.90
2019-01-05T09:32:15.785Z,99.90
2019-01-05T09:35:35.705Z,99.90
2019-01-05T09:38:57.142Z,99.90
2019-01-05T09:42:18.350Z,99.90
2019-01-05T09:45:50.726Z,99.90
2019-01-05T09:49:28.461Z,99.90
2019-01-05T09:52:53.757Z,99.90
2019-01-05T09:56:23.134Z,99.90
2019-01-05T10:00:13.480Z,99.90
2019-01-05T10:03:45.530Z,99.90
2019-01-05T10:07:18.649Z,99.90
2019-01-05T10:10:33.332Z,99.90
2019-01-05T10:14:18.830Z,99.90
2019-01-05T10:17:42.671Z,99.90
2019-01-05T10:20:57.759Z,99.90
2019-01-05T10:24:25.723Z,99.90
2019-01-05T10:28:09.984Z,99.90
2019-01-05T10:31:43.358Z,99.90
2019-01-05T10:35:15.456Z,99.90
2019-01-05T10:38:34.632Z,99.90
2019-01-05T10:42:16.846Z,99.90
2019-01-05T10:45:36.254Z,99.90
2019-01-05T10:49:08.385Z,99.90
2019-01-05T10:52:23.479Z,99.90
2019-01-05T10:55:55.691Z,99.90
2019-01-05T10:59:52.188Z,99.90
2019-01-05T11:03:27.763Z,99.90
2019-01-05T11:07:03.921Z,99.90
2019-01-05T11:10:52.166Z,99.90
2019-01-05T11:14:44.914Z,99.90
2019-01-05T11:18:19.230Z,99.90
2019-01-05T11:21:44.881Z,99.90
2019-01-05T11:25:02.377Z,99.90
2019-01-05T11:28:51.523Z,99.90
2019-01-05T11:32:26.112Z,99.90
2019-01-05T11:36:17.886Z,99.90
2019-01-05T11:40:01.219Z,99.90
2019-01-05T11:43:39.605Z,99.90
2019-01-05T11:47:31.377Z,99.90
2019-01-05T11:51:11.041Z,99.90
2019-01-05T11:54:38.663Z,99.90
2019-01-05T11:58:39.489Z,99.90
2019-01-05T12:02:34.208Z,99.90
2019-01-05T12:06:08.131Z,99.90
2019-01-05T12:09:57.451Z,99.90
2019-01-05T12:13:33.229Z,99.90
2019-01-05T12:17:43.212Z,99.90
2019-01-05T12:21:28.812Z,99.90
2019-01-05T12:25:03.855Z,99.90
2019-01-05T12:28:20.176Z,99.90
2019-01-05T12:32:20.488Z,99.90
2019-01-05T12:35:57.417Z,99.90
2019-01-05T12:39:27.871Z,99.90
2019-01-05T12:43:02.731Z,99.90
2019-01-05T12:46:47.430Z,99.90
2019-01-05T12:50:34.245Z,99.90
2019-01-05T12:54:10.926Z,99.90
2019-01-05T12:57:58.340Z,99.90
2019-01-05T13:01:20.792Z,99.90
2019-01-05T13:04:51.694Z,99.90
2019-01-05T13:08:19.114Z,99.90
2019-01-05T13:11:42.357Z,99.90
2019-01-05T13:15:20.591Z,99.90
2019-01-05T13:18:45.610Z,99.90
2019-01-05T13:22:18.382Z,99.90
2019-01-05T13:25:47.033Z,99.90
2019-01-05T13:28:56.964Z,99.90
2019-01-05T13:32:30.338Z,99.90
2019-01-05T13:35:55.853Z,99.90
2019-01-05T13:39:32.840Z,99.90
2019-01-05T13:42:51.849Z,99.90
2019-01-05T13:46:24.907Z,99.90
2019-01-05T13:49:49.159Z,99.90
2019-01-05T13:53:13.966Z,99.90
2019-01-05T13:56:03.366Z,99.90
2019-01-05T13:59:01.112Z,99.90
2019-01-05T14:01:53.489Z,99.90
2019-01-05T14:04:41.861Z,99.90
2019-01-05T14:07:40.031Z,99.90
2019-01-05T14:10:34.597Z,99.90
2019-01-05T14:13:23.946Z,99.90
2019-01-05T14:16:13.946Z,99.90
2019-01-05T14:19:02.123Z,99.90
2019-01-05T14:21:51.577Z,99.90
2019-01-05T14:24:39.854Z,99.90
2019-01-05T14:27:33.694Z,99.90
2019-01-05T14:30:42.223Z,99.90
2019-01-05T14:33:30.146Z,99.90
2019-01-05T14:36:23.131Z,99.90
2019-01-05T14:39:11.049Z,99.90
2019-01-05T14:41:59.250Z,99.90
2019-01-05T14:44:47.234Z,99.90
2019-01-05T14:47:36.570Z,99.90
2019-01-05T14:50:32.701Z,99.90
2019-01-05T14:53:24.816Z,99.90
2019-01-05T14:56:14.162Z,99.90
2019-01-05T14:59:02.060Z,99.90
2019-01-05T15:02:06.737Z,99.90
2019-01-05T15:04:50.068Z,99.90
2019-01-05T15:07:51.796Z,99.90
2019-01-05T15:10:44.147Z,99.90
2019-01-05T15:13:32.486Z,99.90
2019-01-05T15:16:08.066Z,99.90
2019-01-05T15:18:57.429Z,99.30
2019-01-05T15:21:46.799Z,97.40
2019-01-05T15:24:34.780Z,98.70
2019-01-05T15:27:22.745Z,98.00
2019-01-05T15:30:12.077Z,97.60
2019-01-05T15:33:03.810Z,96.30
2019-01-05T15:36:09.762Z,99.70
2019-01-05T15:39:01.884Z,99.30
2019-01-05T15:42:09.435Z,99.70
2019-01-05T15:45:01.779Z,98.60
2019-01-05T15:47:51.106Z,99.60
2019-01-05T15:50:38.202Z,99.70
2019-01-05T15:53:27.898Z,99.80
2019-01-05T15:56:15.963Z,99.90
2019-01-05T15:59:20.634Z,99.90
2019-01-05T16:02:09.722Z,99.90
2019-01-05T16:04:55.239Z,99.50
2019-01-05T16:07:45.515Z,99.90
2019-01-05T16:10:43.943Z,99.90
2019-01-05T16:13:39.406Z,99.50
2019-01-05T16:16:34.975Z,99.90
2019-01-05T16:19:32.461Z,99.90
2019-01-05T16:22:23.517Z,99.90
2019-01-05T16:25:28.044Z,99.90
2019-01-05T16:28:16.430Z,99.90
2019-01-05T16:31:04.688Z,99.90
2019-01-05T16:34:05.990Z,99.90
2019-01-05T16:37:10.606Z,99.90
2019-01-05T16:39:59.954Z,99.90
2019-01-05T16:42:46.837Z,99.90
2019-01-05T16:45:45.375Z,99.90
2019-01-05T16:48:34.699Z,99.90
2019-01-05T16:51:37.402Z,99.90
2019-01-05T16:54:41.797Z,99.90
2019-01-05T16:57:46.016Z,99.90
2019-01-05T17:00:35.415Z,99.90
2019-01-05T17:03:23.688Z,99.90
2019-01-05T17:06:11.813Z,99.90
2019-01-05T17:09:04.876Z,99.90
2019-01-05T17:11:49.567Z,99.90
2019-01-05T17:14:37.993Z,99.90
2019-01-05T17:17:27.507Z,99.90
2019-01-05T17:20:16.473Z,99.90
2019-01-05T17:23:12.024Z,99.90
2019-01-05T17:26:04.399Z,99.90
2019-01-05T17:29:02.834Z,99.90
2019-01-05T17:31:55.143Z,99.90
2019-01-05T17:34:43.471Z,99.90
2019-01-05T17:37:32.847Z,99.90
2019-01-05T17:40:20.811Z,99.90
2019-01-05T17:43:08.625Z,99.90
2019-01-05T17:45:55.993Z,99.90
2019-01-05T17:48:54.307Z,99.90
2019-01-05T17:51:47.284Z,99.90
2019-01-05T17:54:33.354Z,99.90
2019-01-05T17:57:21.732Z,99.90
2019-01-05T18:00:06.232Z,99.90
2019-01-05T18:02:54.490Z,99.90
2019-01-05T18:05:44.215Z,99.90
2019-01-05T18:08:39.579Z,99.90
2019-01-05T18:11:27.889Z,99.90
2019-01-05T18:14:23.118Z,99.90
2019-01-05T18:17:12.469Z,99.90
2019-01-05T18:20:00.456Z,99.90
2019-01-05T18:22:48.585Z,99.90
2019-01-05T18:25:36.822Z,99.90
2019-01-05T18:28:31.989Z,99.90
2019-01-05T18:31:20.030Z,99.90
2019-01-05T18:34:08.364Z,99.90
2019-01-05T18:36:56.802Z,99.90
2019-01-05T18:39:40.725Z,99.90
2019-01-05T18:42:28.957Z,99.90
2019-01-05T18:45:16.969Z,99.90
2019-01-05T18:48:05.304Z,99.90
2019-01-05T18:51:07.377Z,99.90
2019-01-05T18:54:05.952Z,99.90
2019-01-05T18:56:58.023Z,99.90
2019-01-05T18:59:55.027Z,99.90
2019-01-05T19:02:59.759Z,99.90
2019-01-05T19:05:48.334Z,99.90
2019-01-05T19:08:26.746Z,99.90
2019-01-05T19:11:16.158Z,99.90
2019-01-05T19:14:23.749Z,99.90
2019-01-05T19:17:11.893Z,99.90
2019-01-05T19:19:59.896Z,99.90
2019-01-05T19:22:57.610Z,99.90
2019-01-05T19:25:40.156Z,99.70
2019-01-05T19:28:28.293Z,99.80
2019-01-05T19:31:19.965Z,98.50
2019-01-05T19:34:15.407Z,98.60
2019-01-05T19:36:55.894Z,98.10
2019-01-05T19:39:44.180Z,98.80
2019-01-05T19:42:33.466Z,99.90
2019-01-05T19:45:21.790Z,98.60
2019-01-05T19:48:26.262Z,98.00
2019-01-05T19:51:14.590Z,98.20
2019-01-05T19:54:02.830Z,98.30
2019-01-05T19:56:55.431Z,99.70
2019-01-05T19:59:47.920Z,99.90
2019-01-05T20:02:33.645Z,98.90
2019-01-05T20:05:26.374Z,99.90
2019-01-05T20:08:15.675Z,99.90
2019-01-05T20:11:10.185Z,99.90
2019-01-05T20:13:58.474Z,99.90
2019-01-05T20:16:50.923Z,99.90
2019-01-05T20:19:31.277Z,99.90
2019-01-05T20:22:38.755Z,99.90
2019-01-05T20:25:28.185Z,99.90
2019-01-05T20:28:16.275Z,99.90
2019-01-05T20:31:01.935Z,99.90
2019-01-05T20:33:49.969Z,99.90
2019-01-05T20:36:38.143Z,99.90
2019-01-05T20:39:28.095Z,99.90
2019-01-05T20:42:20.228Z,99.90
2019-01-05T20:45:08.339Z,99.90
2019-01-05T20:47:50.013Z,99.90
2019-01-05T20:50:39.307Z,99.90
2019-01-05T20:53:41.057Z,99.90
2019-01-05T20:56:29.260Z,99.90
2019-01-05T20:59:17.239Z,98.50
2019-01-05T21:02:10.314Z,99.90
2019-01-05T21:05:18.244Z,99.90
2019-01-05T21:08:06.565Z,99.90
2019-01-05T21:11:06.568Z,99.90
2019-01-05T21:14:11.210Z,99.90
2019-01-05T21:16:59.021Z,99.90
2019-01-05T21:19:52.536Z,99.90
2019-01-05T21:22:41.661Z,99.90
2019-01-05T21:25:30.953Z,99.90
2019-01-05T21:28:20.282Z,99.90
2019-01-05T21:31:08.376Z,99.90
2019-01-05T21:33:56.458Z,99.90
2019-01-05T21:36:49.341Z,99.90
2019-01-05T21:39:41.413Z,99.90
2019-01-05T21:42:39.861Z,99.90
2019-01-05T21:45:29.255Z,99.90
2019-01-05T21:48:33.162Z,99.90
2019-01-05T21:51:28.738Z,99.90
2019-01-05T21:54:28.647Z,99.90
2019-01-05T21:57:21.067Z,99.90
2019-01-05T22:00:10.745Z,98.80
2019-01-05T22:03:15.623Z,98.90
2019-01-05T22:06:18.201Z,99.40
2019-01-05T22:09:07.529Z,98.60
2019-01-05T22:12:09.327Z,97.20
2019-01-05T22:15:17.050Z,98.40
2019-01-05T22:18:21.473Z,97.20
2019-01-05T22:21:09.593Z,96.00
2019-01-05T22:23:57.741Z,96.70
2019-01-05T22:26:58.629Z,96.70
2019-01-05T22:29:47.913Z,96.20
2019-01-05T22:32:36.840Z,96.10
2019-01-05T22:35:25.730Z,95.30
2019-01-05T22:38:17.924Z,95.00
2019-01-05T22:41:05.866Z,97.10
2019-01-05T22:44:13.365Z,94.60
2019-01-05T22:47:01.404Z,94.10
2019-01-05T22:50:02.661Z,94.00
2019-01-05T22:52:51.994Z,92.90
2019-01-05T22:55:40.373Z,97.50
2019-01-05T22:58:35.734Z,97.60
2019-01-05T23:01:24.571Z,95.80
2019-01-05T23:04:15.097Z,97.20
2019-01-05T23:07:07.318Z,95.30
2019-01-05T23:09:55.569Z,97.10
2019-01-05T23:12:56.983Z,97.20
2019-01-05T23:15:58.418Z,96.10
2019-01-05T23:18:47.764Z,97.60
2019-01-05T23:21:36.002Z,98.40
2019-01-05T23:24:25.323Z,98.80
2019-01-05T23:27:27.325Z,98.20
2019-01-05T23:30:22.518Z,96.60
2019-01-05T23:33:32.790Z,99.20
2019-01-05T23:36:21.153Z,97.80
2019-01-05T23:39:13.522Z,96.50
2019-01-05T23:42:02.824Z,95.90
2019-01-05T23:45:01.346Z,94.80
2019-01-05T23:48:06.098Z,93.60
2019-01-05T23:50:54.422Z,95.60
2019-01-05T23:53:42.618Z,95.60
2019-01-05T23:56:34.169Z,96.10
2019-01-05T23:59:22.268Z,95.70
